Malibu — FOPP — position and weather

sailwx.info

Track history (hours):
 
Tides and Currents Weather Stations Pressure Air Temp Water Temp Dewpoint Dewpoint Depression Visibility Wind Speed Wind Dir Waves Ship Positions

Malibu

Last reported at 2017-Aug-27 12:25 UTC. Time now 2017-Sep-21 01:41 UTC.
Position N 49°39' W 001°37'.
Warning: this ship's position is 24 days out of date.

Length 17 m.

Type: Sailing vessel. MMSI: 228408000.

Date/timePositionNaut miles runAvg speedWind from/ knotsBaromVisibWave heightAir tempDewpointWater temp
2017-Aug-27 12:25N 49°39' W 001°37'1 2.0
2017-Aug-27 12:00N 49°40' W 001°37'  
2017-Aug-23 09:55N 48°18' W 004°40'2 5.2
2017-Aug-23 09:31N 48°18' W 004°36'1 1.6
2017-Aug-23 08:38N 48°17' W 004°35'0 0.0
2017-Aug-23 07:53N 48°17' W 004°35'0 0.0
2017-Aug-23 07:08N 48°17' W 004°35'0 0.0
2017-Aug-23 06:38N 48°17' W 004°35'0 0.0
2017-Aug-23 06:23N 48°17' W 004°35'0 0.0
2017-Aug-23 05:53N 48°17' W 004°35'0 0.0
2017-Aug-23 05:05N 48°17' W 004°35'0 0.0
2017-Aug-23 04:53N 48°17' W 004°35'0 0.0
2017-Aug-23 04:29N 48°17' W 004°35'0 0.0
2017-Aug-23 03:53N 48°17' W 004°35'0 0.0
2017-Aug-23 03:23N 48°17' W 004°35'0 0.0
2017-Aug-23 02:53N 48°17' W 004°35'0 0.0
2017-Aug-23 02:26N 48°17' W 004°35'0 0.0
2017-Aug-23 01:53N 48°17' W 004°35'0 0.0
2017-Aug-23 00:53N 48°17' W 004°35'0 0.0
2017-Aug-22 23:35N 48°17' W 004°35'0 0.0
2017-Aug-22 22:38N 48°17' W 004°35'0 0.0
2017-Aug-22 20:50N 48°17' W 004°35'0 0.0
2017-Aug-22 19:53N 48°17' W 004°35'0 0.0
2017-Aug-22 18:38N 48°17' W 004°35'0 0.0
2017-Aug-22 17:59N 48°17' W 004°35'0 0.3
2017-Aug-22 17:29N 48°17' W 004°35'0 0.0
2017-Aug-22 16:59N 48°17' W 004°35'0 0.0
2017-Aug-22 16:28N 48°17' W 004°35'0 0.0
2017-Aug-22 15:58N 48°17' W 004°35'0 0.0
2017-Aug-22 15:29N 48°17' W 004°35'1 2.7
2017-Aug-22 15:01N 48°17' W 004°37'4 7.2
2017-Aug-22 14:29N 48°15' W 004°41'61 6.6
2017-Aug-22 05:10N 47°41' W 003°24'1 7.5
2017-Aug-22 04:59N 47°42' W 003°23'3 5.8
2017-Aug-22 04:30N 47°44' W 003°21'0 0.0
2017-Aug-21 11:05N 47°45' W 003°21'0 3.5
2017-Aug-21 10:58N 47°45' W 003°21'4 7.3
2017-Aug-21 10:29N 47°41' W 003°22'4 7.4
2017-Aug-21 09:58N 47°38' W 003°19'4 7.6
2017-Aug-21 09:30N 47°35' W 003°16'  
Track history (hours):
 
Tides and Currents Weather Stations Pressure Air Temp Water Temp Dewpoint Dewpoint Depression Visibility Wind Speed Wind Dir Waves Ship Positions

Malibu

Last reported at 2017-Aug-27 12:25 UTC. Time now 2017-Sep-21 01:41 UTC.
Position N 49°39' W 001°37'.
Warning: this ship's position is 24 days out of date.

Length 17 m.

Type: Sailing vessel. MMSI: 228408000.

Date/timePositionNaut miles runAvg speedWind from/ knotsBaromVisibWave heightAir tempDewpointWater temp
2017-Aug-27 12:25N 49°39' W 001°37'1 2.0
2017-Aug-27 12:00N 49°40' W 001°37'  
2017-Aug-23 09:55N 48°18' W 004°40'2 5.2
2017-Aug-23 09:31N 48°18' W 004°36'1 1.6
2017-Aug-23 08:38N 48°17' W 004°35'0 0.0
2017-Aug-23 07:53N 48°17' W 004°35'0 0.0
2017-Aug-23 07:08N 48°17' W 004°35'0 0.0
2017-Aug-23 06:38N 48°17' W 004°35'0 0.0
2017-Aug-23 06:23N 48°17' W 004°35'0 0.0
2017-Aug-23 05:53N 48°17' W 004°35'0 0.0
2017-Aug-23 05:05N 48°17' W 004°35'0 0.0
2017-Aug-23 04:53N 48°17' W 004°35'0 0.0
2017-Aug-23 04:29N 48°17' W 004°35'0 0.0
2017-Aug-23 03:53N 48°17' W 004°35'0 0.0
2017-Aug-23 03:23N 48°17' W 004°35'0 0.0
2017-Aug-23 02:53N 48°17' W 004°35'0 0.0
2017-Aug-23 02:26N 48°17' W 004°35'0 0.0
2017-Aug-23 01:53N 48°17' W 004°35'0 0.0
2017-Aug-23 00:53N 48°17' W 004°35'0 0.0
2017-Aug-22 23:35N 48°17' W 004°35'0 0.0
2017-Aug-22 22:38N 48°17' W 004°35'0 0.0
2017-Aug-22 20:50N 48°17' W 004°35'0 0.0
2017-Aug-22 19:53N 48°17' W 004°35'0 0.0
2017-Aug-22 18:38N 48°17' W 004°35'0 0.0
2017-Aug-22 17:59N 48°17' W 004°35'0 0.3
2017-Aug-22 17:29N 48°17' W 004°35'0 0.0
2017-Aug-22 16:59N 48°17' W 004°35'0 0.0
2017-Aug-22 16:28N 48°17' W 004°35'0 0.0
2017-Aug-22 15:58N 48°17' W 004°35'0 0.0
2017-Aug-22 15:29N 48°17' W 004°35'1 2.7
2017-Aug-22 15:01N 48°17' W 004°37'4 7.2
2017-Aug-22 14:29N 48°15' W 004°41'61 6.6
2017-Aug-22 05:10N 47°41' W 003°24'1 7.5
2017-Aug-22 04:59N 47°42' W 003°23'3 5.8
2017-Aug-22 04:30N 47°44' W 003°21'0 0.0
2017-Aug-21 11:05N 47°45' W 003°21'0 3.5
2017-Aug-21 10:58N 47°45' W 003°21'4 7.3
2017-Aug-21 10:29N 47°41' W 003°22'4 7.4
2017-Aug-21 09:58N 47°38' W 003°19'4 7.6
2017-Aug-21 09:30N 47°35' W 003°16'  

Dump ship's entire track history